Time;durP1;ratioP1;P1;durP2;ratioP2;P2;SDS_P1;SDS_P2;PMS_P1;PMS_P2;Temp;Humidity;BMP_temperature;BMP_pressure;BME280_temperature;BME280_humidity;BME280_pressure;Samples;Min_cycle;Max_cycle;Signal;HPM_P1;HPM_P2
2021/03/10 00:00:34;;;;;;;62.63;43.90;;;;;;;-2.25;54.74;100985.95;123694;1105;104266;-82
2021/03/10 00:03:00;;;;;;;71.50;45.50;;;;;;;-2.23;53.91;100986.88;123606;1105;104438;-82
2021/03/10 00:05:28;;;;;;;60.52;42.05;;;;;;;-2.17;54.61;100982.70;123815;1105;104233;-84
2021/03/10 00:08:09;;;;;;;71.33;43.50;;;;;;;-2.22;54.64;100982.56;123635;1105;104277;-82
2021/03/10 00:10:36;;;;;;;71.45;43.23;;;;;;;-2.21;54.86;100980.00;123716;1105;104361;-81
2021/03/10 00:13:17;;;;;;;66.80;41.30;;;;;;;-2.27;54.83;100981.51;123465;1108;104341;-82
2021/03/10 00:15:44;;;;;;;59.70;39.30;;;;;;;-2.28;55.09;100972.80;123382;1108;105213;-83
2021/03/10 00:18:13;;;;;;;62.70;42.55;;;;;;;-2.31;55.06;100970.06;123568;1108;104964;-84
2021/03/10 00:20:39;;;;;;;54.77;40.25;;;;;;;-2.29;55.31;100976.23;123478;1109;104280;-83
2021/03/10 00:23:06;;;;;;;62.38;42.75;;;;;;;-2.34;55.33;100987.36;123386;1108;104427;-85
2021/03/10 00:25:32;;;;;;;70.00;41.07;;;;;;;-2.32;55.12;100983.94;123222;1109;104358;-82
2021/03/10 00:27:59;;;;;;;56.00;41.88;;;;;;;-2.33;55.27;100976.97;123166;1109;104232;-82
2021/03/10 00:30:26;;;;;;;58.63;38.67;;;;;;;-2.36;55.76;100976.84;123327;1109;104450;-85
2021/03/10 00:32:52;;;;;;;60.55;42.43;;;;;;;-2.37;56.01;100972.48;123382;1109;104358;-86
2021/03/10 00:35:27;;;;;;;59.53;36.08;;;;;;;-2.36;55.76;100974.23;123411;1108;104239;-84
2021/03/10 00:37:57;;;;;;;70.30;44.18;;;;;;;-2.37;55.80;100973.36;123489;1109;104457;-83
2021/03/10 00:40:24;;;;;;;57.73;37.78;;;;;;;-2.39;56.00;100972.40;123490;1109;104438;-83
2021/03/10 00:42:51;;;;;;;63.07;43.50;;;;;;;-2.38;56.06;100963.75;123422;1109;104335;-81
2021/03/10 00:45:17;;;;;;;63.13;43.40;;;;;;;-2.39;55.87;100961.97;123464;1109;104306;-82
2021/03/10 00:47:44;;;;;;;59.30;40.27;;;;;;;-2.38;55.99;100960.27;123542;1109;104236;-81
2021/03/10 00:50:12;;;;;;;58.45;38.23;;;;;;;-2.45;56.10;100964.38;123439;1109;105363;-81
2021/03/10 00:52:55;;;;;;;57.62;38.15;;;;;;;-2.47;56.06;100965.16;123737;1104;104225;-82
2021/03/10 00:55:22;;;;;;;49.43;36.90;;;;;;;-2.55;56.51;100962.27;123723;1105;104392;-84
2021/03/10 00:57:48;;;;;;;58.57;36.87;;;;;;;-2.59;55.94;100960.38;123673;1105;104341;-84
2021/03/10 01:00:17;;;;;;;61.00;44.27;;;;;;;-2.63;57.20;100958.50;123677;1105;104274;-83
2021/03/10 01:02:43;;;;;;;60.83;42.90;;;;;;;-2.68;56.36;100960.92;123816;1105;105028;-83
2021/03/10 01:05:11;;;;;;;61.67;45.00;;;;;;;-2.66;57.67;100961.00;123773;1105;104322;-81
2021/03/10 01:07:37;;;;;;;68.40;43.53;;;;;;;-2.65;57.37;100963.66;123644;1105;104252;-83
2021/03/10 01:10:06;;;;;;;65.25;41.00;;;;;;;-2.62;57.52;100960.28;123612;1105;104309;-86
2021/03/10 01:12:32;;;;;;;67.27;47.83;;;;;;;-2.60;56.99;100963.81;123728;1105;104341;-82
2021/03/10 01:14:59;;;;;;;69.20;45.67;;;;;;;-2.59;57.58;100958.64;123697;1105;104364;-84
2021/03/10 01:17:40;;;;;;;73.63;43.80;;;;;;;-2.57;57.18;100951.78;123535;1108;104418;-84
2021/03/10 01:20:12;;;;;;;64.77;43.80;;;;;;;-2.56;57.00;100948.35;123516;1109;104354;-85
2021/03/10 01:22:39;;;;;;;70.97;47.53;;;;;;;-2.53;57.78;100955.40;123532;1105;104348;-82
2021/03/10 01:25:26;;;;;;;64.07;43.58;;;;;;;-2.53;57.46;100951.05;123702;1104;104223;-82
2021/03/10 01:28:08;;;;;;;61.23;43.08;;;;;;;-2.55;57.91;100951.83;123177;1112;104361;-82
2021/03/10 01:30:35;;;;;;;55.90;44.50;;;;;;;-2.60;57.30;100946.47;123133;1111;104210;-81
2021/03/10 01:33:01;;;;;;;63.08;42.05;;;;;;;-2.62;57.54;100944.63;123290;1109;104334;-82
2021/03/10 01:35:28;;;;;;;69.13;44.57;;;;;;;-2.66;57.01;100946.23;123498;1109;104664;-82
2021/03/10 01:37:55;;;;;;;60.57;45.63;;;;;;;-2.58;56.93;100947.39;123343;1109;104405;-82
2021/03/10 01:40:25;;;;;;;65.65;42.43;;;;;;;-2.47;57.88;100939.08;123330;1109;104258;-83
2021/03/10 01:42:51;;;;;;;66.12;44.18;;;;;;;-2.46;57.93;100941.73;123279;1109;104460;-85
2021/03/10 01:45:18;;;;;;;70.00;46.68;;;;;;;-2.47;57.34;100939.08;123192;1109;104309;-83
2021/03/10 01:47:46;;;;;;;57.38;42.62;;;;;;;-2.48;57.94;100934.69;123323;1105;104347;-82
2021/03/10 01:50:19;;;;;;;61.70;44.18;;;;;;;-2.58;57.15;100936.96;123601;1105;104290;-82
2021/03/10 01:52:46;;;;;;;66.57;46.27;;;;;;;-2.55;56.78;100933.58;123426;1105;107120;-83
2021/03/10 01:55:13;;;;;;;63.63;44.10;;;;;;;-2.53;58.03;100932.80;123504;1106;104286;-81
2021/03/10 01:57:40;;;;;;;61.95;44.70;;;;;;;-2.50;58.28;100937.23;123507;1105;104277;-82
2021/03/10 02:00:10;;;;;;;60.73;42.48;;;;;;;-2.51;58.15;100938.06;123500;1105;104383;-86
2021/03/10 02:02:37;;;;;;;60.73;38.90;;;;;;;-2.55;58.80;100936.19;123524;1105;104373;-84
2021/03/10 02:05:05;;;;;;;57.07;43.83;;;;;;;-2.61;57.79;100935.95;123620;1105;104328;-84
2021/03/10 02:07:38;;;;;;;57.73;40.78;;;;;;;-2.66;58.77;100935.80;123626;1105;104318;-87
2021/03/10 02:10:40;;;;;;;68.47;51.05;;;;;;;-2.66;58.33;100930.59;123673;1105;104358;-91
2021/03/10 02:13:59;;;;;;;63.70;43.58;;;;;;;-2.65;58.99;100915.82;123545;1105;104401;-83
2021/03/10 02:16:33;;;;;;;68.02;46.02;;;;;;;-2.65;58.21;100918.43;123676;1106;104306;-83
2021/03/10 02:19:11;;;;;;;60.73;42.10;;;;;;;-2.66;59.36;100919.28;123684;1105;104233;-87
2021/03/10 02:22:05;;;;;;;65.93;43.83;;;;;;;-2.64;58.91;100922.81;123502;1109;104373;-83
2021/03/10 02:25:01;;;;;;;65.73;43.47;;;;;;;-2.56;58.05;100923.97;123485;1109;104233;-84
2021/03/10 02:27:48;;;;;;;65.23;46.23;;;;;;;-2.58;58.48;100921.31;123489;1105;104324;-87
2021/03/10 02:30:23;;;;;;;66.85;47.50;;;;;;;-2.49;58.75;100927.69;123521;1105;104499;-82
2021/03/10 02:33:22;;;;;;;65.17;44.90;;;;;;;-2.51;58.96;100922.42;123584;1105;104877;-82
2021/03/10 02:35:59;;;;;;;61.73;45.57;;;;;;;-2.55;59.36;100924.02;123560;1105;104229;-86
2021/03/10 02:38:44;;;;;;;62.38;44.58;;;;;;;-2.61;59.69;100928.13;123446;1105;104634;-83
2021/03/10 02:41:12;;;;;;;60.90;41.17;;;;;;;-2.65;59.35;100921.03;123570;1105;104316;-84
2021/03/10 02:43:39;;;;;;;64.65;44.10;;;;;;;-2.73;58.57;100919.05;123572;1105;104521;-82
2021/03/10 02:46:07;;;;;;;65.20;42.43;;;;;;;-2.70;59.21;100916.55;123581;1105;104238;-89
2021/03/10 02:48:34;;;;;;;66.72;45.90;;;;;;;-2.73;59.29;100918.19;123478;1105;104255;-82
2021/03/10 02:51:02;;;;;;;61.85;42.67;;;;;;;-2.70;59.56;100916.55;123657;1106;104210;-83
2021/03/10 02:53:29;;;;;;;65.25;43.33;;;;;;;-2.68;59.20;100916.59;123596;1105;104354;-83
2021/03/10 02:55:56;;;;;;;62.53;43.15;;;;;;;-2.68;59.20;100924.42;123606;1105;104492;-82
2021/03/10 02:58:23;;;;;;;63.43;41.80;;;;;;;-2.72;59.35;100919.92;123557;1105;104242;-81
2021/03/10 03:00:50;;;;;;;68.20;46.40;;;;;;;-2.70;59.03;100919.16;123555;1105;104332;-82
2021/03/10 03:03:16;;;;;;;59.57;45.10;;;;;;;-2.62;59.55;100921.17;123709;1105;104523;-82
2021/03/10 03:05:43;;;;;;;57.60;41.35;;;;;;;-2.60;59.40;100920.39;123717;1105;104362;-83
2021/03/10 03:08:13;;;;;;;60.90;44.50;;;;;;;-2.63;60.13;100922.87;123712;1105;104347;-83
2021/03/10 03:10:41;;;;;;;62.65;41.48;;;;;;;-2.57;59.84;100919.62;123598;1105;104223;-82
2021/03/10 03:13:15;;;;;;;64.27;47.60;;;;;;;-2.61;59.23;100912.48;123689;1105;104290;-83
2021/03/10 03:15:58;;;;;;;62.25;43.38;;;;;;;-2.69;59.29;100913.11;123502;1109;104995;-82
2021/03/10 03:18:29;;;;;;;55.10;41.37;;;;;;;-2.71;60.63;100912.16;123343;1109;104303;-83
2021/03/10 03:20:59;;;;;;;63.53;45.30;;;;;;;-2.77;59.30;100916.27;123528;1108;104386;-83
2021/03/10 03:23:27;;;;;;;59.37;43.23;;;;;;;-2.75;60.86;100923.31;123413;1108;104694;-80
2021/03/10 03:25:55;;;;;;;63.95;40.85;;;;;;;-2.81;60.16;100925.72;123373;1109;104405;-82
2021/03/10 03:28:25;;;;;;;62.67;45.05;;;;;;;-2.87;60.20;100921.14;123324;1109;104306;-86
2021/03/10 03:30:53;;;;;;;57.47;41.83;;;;;;;-2.86;60.59;100922.92;123395;1109;104408;-82
2021/03/10 03:33:23;;;;;;;62.95;43.60;;;;;;;-2.87;61.05;100921.14;123378;1109;105155;-82
2021/03/10 03:35:55;;;;;;;60.13;43.00;;;;;;;-2.88;60.17;100914.18;123429;1109;105345;-81
2021/03/10 03:38:23;;;;;;;62.53;42.30;;;;;;;-2.83;60.25;100918.67;123477;1108;104992;-82
2021/03/10 03:40:51;;;;;;;68.78;45.67;;;;;;;-2.80;60.25;100922.28;123418;1109;104255;-83
2021/03/10 03:43:18;;;;;;;65.00;42.20;;;;;;;-2.61;59.33;100921.22;123328;1109;105064;-82
2021/03/10 03:45:46;;;;;;;55.43;39.23;;;;;;;-2.69;59.63;100920.94;123364;1108;104469;-81
2021/03/10 03:48:13;;;;;;;55.23;39.97;;;;;;;-2.80;60.39;100921.37;123349;1108;104494;-82
2021/03/10 03:50:41;;;;;;;63.30;45.83;;;;;;;-2.85;60.48;100918.62;123313;1109;105075;-84
2021/03/10 03:53:10;;;;;;;56.13;41.23;;;;;;;-2.87;59.84;100920.27;123346;1106;104316;-84
2021/03/10 03:55:36;;;;;;;61.05;41.70;;;;;;;-2.86;60.47;100925.53;123490;1105;104319;-82
2021/03/10 03:58:04;;;;;;;60.78;40.45;;;;;;;-2.83;60.36;100923.88;123310;1105;104213;-82
2021/03/10 04:00:32;;;;;;;63.63;40.97;;;;;;;-2.93;59.85;100923.55;123475;1105;104302;-85
2021/03/10 04:02:59;;;;;;;58.77;40.57;;;;;;;-3.00;61.10;100918.04;123520;1105;105098;-82
2021/03/10 04:05:26;;;;;;;61.17;41.43;;;;;;;-3.07;61.20;100924.74;123544;1105;104373;-83
2021/03/10 04:08:07;;;;;;;65.13;44.17;;;;;;;-3.10;60.82;100928.13;123727;1105;104200;-82
2021/03/10 04:10:48;;;;;;;61.88;40.60;;;;;;;-3.04;60.80;100930.06;123420;1108;104294;-85
2021/03/10 04:13:15;;;;;;;62.60;42.60;;;;;;;-3.02;60.04;100920.59;123442;1109;104233;-81
2021/03/10 04:15:41;;;;;;;63.60;42.93;;;;;;;-2.99;61.25;100925.91;123615;1105;104361;-85
2021/03/10 04:18:22;;;;;;;65.40;45.80;;;;;;;-2.93;60.38;100922.64;123686;1106;104233;-82
2021/03/10 04:21:05;;;;;;;57.70;39.85;;;;;;;-3.00;60.04;100918.91;123410;1109;104401;-83
2021/03/10 04:23:31;;;;;;;64.07;43.37;;;;;;;-3.05;60.95;100931.79;123498;1109;104399;-86
2021/03/10 04:25:58;;;;;;;81.57;49.18;;;;;;;-2.98;60.08;100921.61;123472;1109;104357;-85
2021/03/10 04:28:24;;;;;;;88.97;58.23;;;;;;;-2.86;61.04;100933.34;123315;1109;104421;-82
2021/03/10 04:31:05;;;;;;;70.35;43.87;;;;;;;-2.87;60.53;100923.75;122982;1110;104330;-82
2021/03/10 04:33:32;;;;;;;71.37;46.50;;;;;;;-2.96;60.67;100936.47;123013;1112;105028;-86
2021/03/10 04:35:59;;;;;;;57.80;40.77;;;;;;;-3.03;60.72;100939.66;123087;1112;104474;-83
2021/03/10 04:38:28;;;;;;;57.83;40.10;;;;;;;-3.11;61.99;100934.16;123073;1111;104446;-82
2021/03/10 04:40:55;;;;;;;69.27;45.47;;;;;;;-3.18;62.02;100932.16;123057;1111;104440;-87
2021/03/10 04:43:21;;;;;;;45.97;34.50;;;;;;;-3.27;61.89;100934.41;123035;1112;104986;-82
2021/03/10 04:45:48;;;;;;;65.70;41.60;;;;;;;-3.29;61.45;100936.05;123177;1112;105323;-85
2021/03/10 04:48:15;;;;;;;65.60;41.48;;;;;;;-3.27;61.48;100932.68;123166;1112;105860;-86
2021/03/10 04:50:42;;;;;;;54.13;39.85;;;;;;;-3.26;61.77;100928.37;123012;1111;104249;-82
2021/03/10 04:53:08;;;;;;;56.15;39.85;;;;;;;-3.32;61.98;100931.61;123061;1112;105316;-83
2021/03/10 04:55:35;;;;;;;60.12;40.63;;;;;;;-3.38;62.79;100932.27;123117;1111;104376;-82
2021/03/10 04:58:01;;;;;;;62.23;41.50;;;;;;;-3.42;62.23;100932.98;123063;1112;104332;-84
2021/03/10 05:00:28;;;;;;;63.42;38.70;;;;;;;-3.46;62.96;100927.61;123345;1109;104267;-83
2021/03/10 05:02:54;;;;;;;60.97;42.97;;;;;;;-3.47;62.35;100931.91;123446;1109;104324;-81
2021/03/10 05:05:21;;;;;;;59.18;40.88;;;;;;;-3.46;62.60;100933.69;123351;1109;104492;-82
2021/03/10 05:08:03;;;;;;;60.20;43.63;;;;;;;-3.39;63.33;100934.82;122969;1109;105201;-82
2021/03/10 05:11:00;;;;;;;59.85;41.20;;;;;;;-3.34;62.25;100935.02;123231;1109;104316;-81
2021/03/10 05:13:29;;;;;;;60.70;43.98;;;;;;;-3.35;62.39;100941.92;123328;1109;104397;-83
2021/03/10 05:16:00;;;;;;;56.60;41.95;;;;;;;-3.32;62.95;100939.42;123243;1109;104539;-81
2021/03/10 05:18:27;;;;;;;61.60;42.67;;;;;;;-3.26;62.72;100939.67;123323;1109;104427;-82
2021/03/10 05:21:08;;;;;;;67.82;45.63;;;;;;;-3.21;62.95;100932.92;123192;1106;104571;-82
2021/03/10 05:23:50;;;;;;;56.47;43.47;;;;;;;-3.04;62.93;100933.57;122935;1112;104328;-83
2021/03/10 05:26:31;;;;;;;62.58;43.78;;;;;;;-3.01;61.88;100935.41;123098;1107;104214;-82
2021/03/10 05:28:57;;;;;;;66.97;42.75;;;;;;;-3.05;61.85;100936.13;123315;1106;104378;-84
2021/03/10 05:31:24;;;;;;;56.25;43.68;;;;;;;-3.02;61.66;100938.84;123510;1105;104702;-86
2021/03/10 05:34:05;;;;;;;67.37;45.87;;;;;;;-3.00;62.60;100938.89;123543;1106;104986;-84
2021/03/10 05:36:31;;;;;;;51.30;35.90;;;;;;;-2.97;63.10;100931.17;123562;1105;104214;-85
2021/03/10 05:39:14;;;;;;;61.70;44.13;;;;;;;-3.02;62.96;100934.50;123435;1105;105270;-82
2021/03/10 05:41:42;;;;;;;64.40;40.93;;;;;;;-2.98;62.13;100937.24;123431;1105;104706;-85
2021/03/10 05:44:09;;;;;;;57.70;40.78;;;;;;;-2.97;61.87;100932.08;123536;1105;104335;-83
2021/03/10 05:46:37;;;;;;;69.20;44.18;;;;;;;-2.87;62.93;100933.30;123497;1105;104188;-84
2021/03/10 05:49:06;;;;;;;57.30;40.93;;;;;;;-2.84;62.88;100933.41;123496;1106;104297;-82
2021/03/10 05:51:33;;;;;;;65.05;42.05;;;;;;;-2.86;62.45;100938.56;123522;1105;104332;-82
2021/03/10 05:54:02;;;;;;;68.13;47.00;;;;;;;-2.80;62.32;100939.63;123574;1105;104323;-83
2021/03/10 05:56:28;;;;;;;48.20;34.67;;;;;;;-2.76;61.97;100950.23;123607;1105;104377;-90
2021/03/10 05:59:00;;;;;;;62.40;42.60;;;;;;;-2.77;62.08;100958.87;123392;1105;104376;-81
2021/03/10 06:01:26;;;;;;;71.05;42.70;;;;;;;-2.73;62.62;100946.86;123515;1105;104725;-84
2021/03/10 06:03:58;;;;;;;69.58;45.98;;;;;;;-2.55;61.83;100944.01;123451;1105;104261;-82
2021/03/10 06:06:26;;;;;;;59.48;41.83;;;;;;;-2.45;61.76;100947.81;123580;1105;104463;-82
2021/03/10 06:08:52;;;;;;;78.15;51.88;;;;;;;-2.39;62.31;100955.87;123448;1106;104659;-80
2021/03/10 06:11:26;;;;;;;58.17;42.10;;;;;;;-2.41;61.40;100955.83;123438;1105;104979;-86
2021/03/10 06:13:54;;;;;;;58.17;40.40;;;;;;;-2.39;60.94;100961.09;123525;1105;104249;-87
2021/03/10 06:16:25;;;;;;;56.30;40.13;;;;;;;-2.41;61.93;100962.77;123520;1105;104180;-83
2021/03/10 06:19:05;;;;;;;56.88;40.85;;;;;;;-2.42;62.06;100964.48;123424;1105;104382;-82
2021/03/10 06:21:32;;;;;;;54.17;37.97;;;;;;;-2.40;61.61;100969.74;123428;1105;104216;-82
2021/03/10 06:24:01;;;;;;;70.43;44.20;;;;;;;-2.33;62.08;100978.67;123554;1105;104309;-89
2021/03/10 06:26:29;;;;;;;63.50;44.57;;;;;;;-2.09;61.34;100970.80;123579;1105;104255;-83
2021/03/10 06:28:57;;;;;;;73.55;46.70;;;;;;;-1.82;61.59;100976.09;123584;1105;104163;-81
2021/03/10 06:31:31;;;;;;;62.57;44.00;;;;;;;-1.81;60.36;100975.27;123540;1105;104373;-85
2021/03/10 06:34:07;;;;;;;54.55;38.90;;;;;;;-1.92;61.42;100981.83;123412;1105;104223;-88
2021/03/10 06:36:36;;;;;;;55.90;42.77;;;;;;;-2.02;60.87;100976.30;123444;1106;104492;-85
2021/03/10 06:39:06;;;;;;;51.75;38.98;;;;;;;-2.00;60.68;100978.08;123470;1105;105627;-82
2021/03/10 06:41:38;;;;;;;59.50;37.33;;;;;;;-2.03;60.82;100977.16;123403;1105;104245;-85
2021/03/10 06:44:25;;;;;;;51.77;34.83;;;;;;;-2.07;62.14;100977.86;123145;1106;104210;-82
2021/03/10 06:47:24;;;;;;;59.07;40.70;;;;;;;-2.04;61.49;100972.77;122909;1105;104226;-82
2021/03/10 06:49:54;;;;;;;62.27;40.75;;;;;;;-1.96;62.20;100978.25;123067;1105;104466;-82
2021/03/10 06:52:21;;;;;;;55.73;39.98;;;;;;;-1.93;61.65;100975.73;122947;1105;105008;-86
2021/03/10 06:55:03;;;;;;;56.47;36.03;;;;;;;-1.85;61.72;100986.44;122844;1105;104386;-85
2021/03/10 06:57:30;;;;;;;47.53;35.37;;;;;;;-1.81;61.71;100983.09;123307;1105;104255;-85
2021/03/10 06:59:57;;;;;;;48.68;35.63;;;;;;;-1.74;61.03;100981.58;123275;1105;104819;-83
2021/03/10 07:02:26;;;;;;;57.47;35.30;;;;;;;-1.72;61.05;100992.94;123068;1105;104418;-82
2021/03/10 07:04:55;;;;;;;51.58;40.95;;;;;;;-1.64;61.30;100988.88;123359;1105;104836;-82
2021/03/10 07:07:37;;;;;;;55.65;40.95;;;;;;;-1.57;60.37;100993.45;122697;1106;104344;-85
2021/03/10 07:10:19;;;;;;;72.32;45.45;;;;;;;-1.43;61.11;100991.27;122682;1109;104422;-83
2021/03/10 07:12:55;;;;;;;58.23;41.83;;;;;;;-1.21;59.98;100999.82;122809;1105;104345;-82
2021/03/10 07:15:24;;;;;;;68.43;51.47;;;;;;;-0.98;60.33;100992.67;123436;1106;105044;-87
2021/03/10 07:17:50;;;;;;;70.15;42.62;;;;;;;-0.81;59.84;100993.19;123299;1104;104211;-81
2021/03/10 07:20:19;;;;;;;54.27;36.87;;;;;;;-0.73;58.99;101002.14;123289;1105;104389;-81
2021/03/10 07:22:57;;;;;;;55.43;39.50;;;;;;;-0.73;59.00;101003.88;123524;1105;104238;-82
2021/03/10 07:25:28;;;;;;;53.10;37.25;;;;;;;-0.71;58.92;101008.31;123473;1105;104265;-81
2021/03/10 07:27:59;;;;;;;63.53;43.13;;;;;;;-0.70;59.38;101007.45;123387;1105;104320;-80
2021/03/10 07:30:39;;;;;;;63.10;45.73;;;;;;;-0.54;58.99;101002.67;123419;1105;104352;-85
2021/03/10 07:33:14;;;;;;;50.88;37.13;;;;;;;-0.47;58.25;101004.61;123497;1105;104310;-81
2021/03/10 07:36:02;;;;;;;52.90;40.20;;;;;;;-0.53;58.77;101010.56;123515;1106;105129;-81
2021/03/10 07:38:36;;;;;;;63.97;43.77;;;;;;;-0.52;58.87;100998.36;123483;1105;104236;-82
2021/03/10 07:41:05;;;;;;;66.40;43.13;;;;;;;-0.32;58.52;101003.27;123378;1105;104699;-80
2021/03/10 07:43:36;;;;;;;57.00;39.55;;;;;;;-0.27;58.00;101007.78;123314;1105;104232;-83
2021/03/10 07:46:04;;;;;;;56.95;40.55;;;;;;;-0.20;58.17;101012.36;123565;1105;104219;-86
2021/03/10 07:48:33;;;;;;;59.23;43.07;;;;;;;-0.16;57.85;101005.48;123407;1105;105308;-82
2021/03/10 07:51:00;;;;;;;75.33;44.90;;;;;;;0.04;57.62;101003.41;123326;1105;104210;-80
2021/03/10 07:53:39;;;;;;;60.87;39.00;;;;;;;0.32;56.60;101010.23;123495;1105;104706;-82
2021/03/10 07:56:08;;;;;;;59.97;38.40;;;;;;;0.52;56.58;101006.33;123537;1105;105009;-81
2021/03/10 07:58:35;;;;;;;60.23;38.27;;;;;;;0.56;55.66;101006.45;123471;1105;104473;-80
2021/03/10 08:01:02;;;;;;;49.80;32.10;;;;;;;0.55;55.73;101004.67;123480;1105;104286;-80
2021/03/10 08:03:33;;;;;;;61.88;42.23;;;;;;;0.63;55.08;101007.48;123432;1105;104421;-81
2021/03/10 08:06:05;;;;;;;49.95;33.85;;;;;;;0.71;54.75;101008.55;123502;1105;104225;-81
2021/03/10 08:08:39;;;;;;;48.15;36.40;;;;;;;0.85;55.28;101011.48;123283;1105;104236;-83
2021/03/10 08:11:10;;;;;;;56.00;38.93;;;;;;;0.98;55.22;101012.66;123298;1105;104227;-84
2021/03/10 08:13:48;;;;;;;49.15;30.97;;;;;;;1.05;53.50;101011.06;123457;1105;104987;-82
2021/03/10 08:16:17;;;;;;;41.02;28.62;;;;;;;1.15;53.04;101013.92;123306;1105;104239;-81
2021/03/10 08:18:47;;;;;;;50.75;31.75;;;;;;;1.23;52.50;101015.84;123174;1109;104315;-80
2021/03/10 08:21:17;;;;;;;58.50;36.07;;;;;;;1.33;53.21;101007.30;123459;1105;104387;-82
2021/03/10 08:23:46;;;;;;;56.28;38.38;;;;;;;1.38;52.38;101007.41;123447;1105;104386;-81
2021/03/10 08:26:17;;;;;;;51.98;33.08;;;;;;;1.54;52.39;101013.86;123509;1105;104309;-80
2021/03/10 08:28:44;;;;;;;49.53;34.87;;;;;;;1.66;51.27;101016.73;123294;1105;104441;-82
2021/03/10 08:31:11;;;;;;;48.70;30.60;;;;;;;1.78;50.98;101009.09;123316;1105;104302;-81
2021/03/10 08:33:51;;;;;;;35.85;24.37;;;;;;;1.92;50.19;101011.09;123472;1105;104305;-81
2021/03/10 08:36:32;;;;;;;47.20;30.00;;;;;;;1.90;50.16;100999.69;123345;1105;104344;-81
2021/03/10 08:38:59;;;;;;;49.00;32.50;;;;;;;2.04;50.55;101007.81;123372;1105;104206;-82
2021/03/10 08:41:26;;;;;;;49.88;33.90;;;;;;;2.16;50.00;101002.80;123384;1105;104558;-81
2021/03/10 08:44:22;;;;;;;43.52;30.02;;;;;;;2.31;49.17;101000.42;123301;1105;104207;-79
2021/03/10 08:46:51;;;;;;;43.07;28.43;;;;;;;2.41;48.44;100997.95;123190;1105;104351;-86
2021/03/10 08:49:20;;;;;;;31.65;22.93;;;;;;;2.47;47.37;101006.83;123485;1105;104229;-81
2021/03/10 08:51:47;;;;;;;38.05;24.37;;;;;;;2.53;47.18;101000.77;123231;1106;105056;-82
2021/03/10 08:54:16;;;;;;;31.65;23.85;;;;;;;2.60;46.25;100997.41;123220;1105;104233;-83
2021/03/10 08:56:48;;;;;;;43.43;27.03;;;;;;;2.74;47.34;101000.23;123179;1105;104264;-84
2021/03/10 08:59:16;;;;;;;28.23;22.00;;;;;;;2.86;46.41;101002.17;123530;1105;104334;-81
2021/03/10 09:01:49;;;;;;;16.30;13.20;;;;;;;2.91;44.92;100989.10;123559;1105;104316;-81
2021/03/10 09:04:26;;;;;;;22.17;14.95;;;;;;;3.02;43.86;100990.13;123491;1106;104407;-80
2021/03/10 09:06:55;;;;;;;19.40;15.30;;;;;;;3.12;43.99;101002.55;123424;1105;104251;-85
2021/03/10 09:09:31;;;;;;;19.80;13.97;;;;;;;3.57;41.68;100995.21;123504;1105;104386;-82
2021/03/10 09:12:00;;;;;;;27.05;17.62;;;;;;;5.63;40.61;100986.26;123688;1104;104399;-84
2021/03/10 09:14:48;;;;;;;19.57;15.43;;;;;;;7.02;38.13;100984.62;123672;1105;104476;-83
2021/03/10 09:17:17;;;;;;;19.00;16.70;;;;;;;8.57;32.81;100977.61;123763;1105;104274;-82
2021/03/10 09:19:47;;;;;;;17.95;13.50;;;;;;;9.37;33.80;100976.80;123897;1105;104443;-84
2021/03/10 09:22:19;;;;;;;18.80;13.00;;;;;;;9.74;30.76;100975.44;123404;1105;104632;-82
2021/03/10 09:25:12;;;;;;;19.92;11.03;;;;;;;10.23;30.46;100980.04;123349;1105;105035;-82
2021/03/10 09:27:39;;;;;;;14.47;10.17;;;;;;;10.58;27.76;100975.95;123443;1106;104307;-82
2021/03/10 09:30:08;;;;;;;14.15;10.18;;;;;;;9.92;28.67;100967.20;123404;1105;104634;-81
2021/03/10 09:32:46;;;;;;;9.63;7.30;;;;;;;9.07;28.23;100981.55;123394;1105;104262;-79
2021/03/10 09:35:35;;;;;;;8.13;6.30;;;;;;;8.48;27.80;100981.23;123083;1105;104332;-86
2021/03/10 09:38:04;;;;;;;9.30;8.30;;;;;;;9.49;27.36;100978.41;123231;1104;104382;-81
2021/03/10 09:40:45;;;;;;;16.23;10.72;;;;;;;10.09;28.14;100974.04;123173;1105;104363;-81
2021/03/10 09:43:21;;;;;;;12.75;9.20;;;;;;;10.41;27.79;100968.27;122929;1105;104696;-80
2021/03/10 09:45:48;;;;;;;10.93;8.93;;;;;;;11.33;27.58;100972.81;122864;1105;104606;-83
2021/03/10 09:48:38;;;;;;;9.00;7.40;;;;;;;11.32;25.02;100987.05;123019;1105;104306;-82
2021/03/10 09:51:15;;;;;;;8.80;7.50;;;;;;;9.94;24.85;100984.00;123059;1106;104287;-85
2021/03/10 09:53:50;;;;;;;11.30;9.40;;;;;;;9.71;26.18;100979.87;122840;1106;104381;-80
2021/03/10 09:56:19;;;;;;;19.53;9.23;;;;;;;9.92;26.99;100979.63;122878;1105;104335;-82
2021/03/10 09:58:50;;;;;;;13.05;9.60;;;;;;;9.83;26.93;100989.48;123424;1105;104304;-80
2021/03/10 10:01:18;;;;;;;20.90;10.30;;;;;;;9.93;26.92;100976.95;123997;1105;104258;-83
2021/03/10 10:03:45;;;;;;;11.40;9.33;;;;;;;10.54;27.33;100985.80;124156;1105;104373;-80
2021/03/10 10:06:13;;;;;;;12.30;11.03;;;;;;;10.97;25.81;100986.82;123975;1105;104348;-84
2021/03/10 10:08:39;;;;;;;11.13;9.93;;;;;;;11.57;26.29;100989.20;124321;1105;104325;-81
2021/03/10 10:11:09;;;;;;;14.45;9.90;;;;;;;12.29;24.29;100981.39;124080;1105;104406;-81
2021/03/10 10:13:48;;;;;;;11.27;9.83;;;;;;;12.65;23.82;100990.30;123252;1105;104763;-80
2021/03/10 10:16:16;;;;;;;18.77;13.75;;;;;;;11.85;24.00;100985.03;123413;1105;104326;-89
2021/03/10 10:18:44;;;;;;;11.37;9.07;;;;;;;11.23;24.09;101001.43;123880;1105;104297;-80
2021/03/10 10:21:10;;;;;;;14.83;9.67;;;;;;;11.35;24.98;100998.52;123222;1105;104724;-80
2021/03/10 10:23:37;;;;;;;15.50;10.03;;;;;;;10.90;24.85;101000.28;123393;1105;104409;-85
2021/03/10 10:26:19;;;;;;;12.27;9.40;;;;;;;10.33;24.43;101002.06;123270;1105;104595;-81
2021/03/10 10:28:46;;;;;;;12.80;10.43;;;;;;;9.73;25.68;100994.95;123277;1105;104527;-80
2021/03/10 10:31:27;;;;;;;14.67;10.90;;;;;;;9.82;26.13;101001.05;123203;1105;104633;-80
2021/03/10 10:33:55;;;;;;;16.20;10.97;;;;;;;10.20;25.74;100996.06;123345;1105;104304;-83
2021/03/10 10:36:22;;;;;;;16.60;11.20;;;;;;;11.22;25.45;101002.33;123232;1105;104236;-80
2021/03/10 10:38:49;;;;;;;16.93;11.80;;;;;;;12.33;23.96;100996.45;123291;1105;104373;-81
2021/03/10 10:41:22;;;;;;;16.17;9.60;;;;;;;12.49;23.06;100994.28;123351;1105;104312;-81
2021/03/10 10:43:49;;;;;;;21.13;13.33;;;;;;;11.93;23.97;100994.65;123308;1105;104609;-81
2021/03/10 10:46:16;;;;;;;13.43;9.53;;;;;;;12.06;23.93;100993.48;123380;1105;104310;-81
2021/03/10 10:48:43;;;;;;;19.30;11.18;;;;;;;11.32;24.53;100995.05;123294;1105;104290;-80
2021/03/10 10:51:10;;;;;;;15.35;10.18;;;;;;;10.23;23.20;100989.81;123314;1105;104280;-81
2021/03/10 10:53:37;;;;;;;13.18;9.33;;;;;;;9.44;24.65;100988.24;123279;1105;104392;-82
2021/03/10 10:56:04;;;;;;;18.43;11.07;;;;;;;8.93;26.05;100999.41;123258;1105;104249;-80
2021/03/10 10:58:30;;;;;;;13.25;10.93;;;;;;;8.64;26.36;100990.82;123155;1105;104647;-82
2021/03/10 11:00:57;;;;;;;14.93;9.28;;;;;;;8.57;26.66;100983.82;123290;1106;104328;-82
2021/03/10 11:03:25;;;;;;;14.55;10.45;;;;;;;8.15;27.04;100986.73;123173;1105;104382;-81
2021/03/10 11:05:52;;;;;;;12.40;8.70;;;;;;;7.85;27.47;100988.70;123174;1105;104398;-83
2021/03/10 11:08:20;;;;;;;11.45;8.70;;;;;;;7.53;27.48;100992.39;123181;1105;105011;-82
2021/03/10 11:10:46;;;;;;;13.27;9.97;;;;;;;7.29;28.40;100988.08;123258;1105;104345;-82
2021/03/10 11:13:32;;;;;;;9.53;8.40;;;;;;;7.24;28.21;100986.30;123163;1105;104229;-83
2021/03/10 11:15:59;;;;;;;14.80;10.38;;;;;;;7.00;29.25;100974.91;123193;1105;104933;-81